createdAt,value
2023-11-28T00:01:24.903Z,4.70
2023-11-28T00:03:51.832Z,3.90
2023-11-28T00:06:19.773Z,3.38
2023-11-28T00:08:47.992Z,4.53
2023-11-28T00:11:22.219Z,4.10
2023-11-28T00:13:49.657Z,4.72
2023-11-28T00:16:16.942Z,4.95
2023-11-28T00:18:44.773Z,4.18
2023-11-28T00:21:12.835Z,4.97
2023-11-28T00:23:39.910Z,5.65
2023-11-28T00:26:06.948Z,4.55
2023-11-28T00:28:33.887Z,4.20
2023-11-28T00:31:00.889Z,4.03
2023-11-28T00:33:27.749Z,3.63
2023-11-28T00:35:54.840Z,4.30
2023-11-28T00:38:22.572Z,4.07
2023-11-28T00:40:49.754Z,4.47
2023-11-28T00:43:17.188Z,3.25
2023-11-28T00:45:44.084Z,4.80
2023-11-28T00:48:11.029Z,4.15
2023-11-28T00:50:37.861Z,4.05
2023-11-28T00:53:05.386Z,3.55
2023-11-28T00:55:32.334Z,3.72
2023-11-28T00:57:59.223Z,4.20
2023-11-28T01:00:26.780Z,3.70
2023-11-28T01:02:53.891Z,3.85
2023-11-28T01:05:22.382Z,3.15
2023-11-28T01:07:49.556Z,4.03
2023-11-28T01:10:16.545Z,3.47
2023-11-28T01:12:43.477Z,2.80
2023-11-28T01:15:12.057Z,3.10
2023-11-28T01:17:39.020Z,3.88
2023-11-28T01:20:06.610Z,3.03
2023-11-28T01:22:33.529Z,3.33
2023-11-28T01:25:00.907Z,2.92
2023-11-28T01:27:27.835Z,2.33
2023-11-28T01:29:54.711Z,3.38
2023-11-28T01:32:21.576Z,3.38
2023-11-28T01:34:48.665Z,2.17
2023-11-28T01:37:17.515Z,3.10
2023-11-28T01:39:44.583Z,3.15
2023-11-28T01:42:11.670Z,4.75
2023-11-28T01:44:38.831Z,3.20
2023-11-28T01:47:06.970Z,2.78
2023-11-28T01:49:36.638Z,2.80
2023-11-28T01:52:05.868Z,3.30
2023-11-28T01:54:33.691Z,4.35
2023-11-28T01:57:00.717Z,3.22
2023-11-28T01:59:28.947Z,3.60
2023-11-28T02:01:56.545Z,3.40
2023-11-28T02:04:23.512Z,3.28
2023-11-28T02:06:53.140Z,3.28
2023-11-28T02:09:19.998Z,3.72
2023-11-28T02:11:46.809Z,2.95
2023-11-28T02:14:13.758Z,3.05
2023-11-28T02:16:40.864Z,2.58
2023-11-28T02:19:07.797Z,3.38
2023-11-28T02:21:34.873Z,2.97
2023-11-28T02:24:02.104Z,2.33
2023-11-28T02:26:29.481Z,3.67
2023-11-28T02:28:57.749Z,3.00
2023-11-28T02:31:25.342Z,3.63
2023-11-28T02:33:53.022Z,3.10
2023-11-28T02:36:22.624Z,3.10
2023-11-28T02:38:52.510Z,3.33
2023-11-28T02:41:20.088Z,3.08
2023-11-28T02:43:47.046Z,2.83
2023-11-28T02:46:14.028Z,3.40
2023-11-28T02:48:41.560Z,4.85
2023-11-28T02:51:12.362Z,3.35
2023-11-28T02:53:40.204Z,2.80
2023-11-28T02:56:07.716Z,2.80
2023-11-28T02:58:34.677Z,3.17
2023-11-28T03:01:01.528Z,2.88
2023-11-28T03:03:28.466Z,3.50
2023-11-28T03:05:57.004Z,3.10
2023-11-28T03:08:24.234Z,2.70
2023-11-28T03:10:51.797Z,3.28
2023-11-28T03:13:18.615Z,2.22
2023-11-28T03:15:45.461Z,3.13
2023-11-28T03:18:12.416Z,3.25
2023-11-28T03:20:39.335Z,3.60
2023-11-28T03:23:06.346Z,3.95
2023-11-28T03:25:34.251Z,3.90
2023-11-28T03:28:01.105Z,4.18
2023-11-28T03:30:27.991Z,3.25
2023-11-28T03:32:54.987Z,3.65
2023-11-28T03:35:22.046Z,3.38
2023-11-28T03:37:50.105Z,3.35
2023-11-28T03:40:17.229Z,3.03
2023-11-28T03:42:44.114Z,3.50
2023-11-28T03:45:11.449Z,3.35
2023-11-28T03:47:38.309Z,3.30
2023-11-28T03:50:06.095Z,4.18
2023-11-28T03:52:33.334Z,3.33
2023-11-28T03:55:00.227Z,3.85
2023-11-28T03:57:27.595Z,4.30
2023-11-28T03:59:54.477Z,3.90
2023-11-28T04:02:21.725Z,3.80
2023-11-28T04:04:49.137Z,4.97
2023-11-28T04:07:17.004Z,4.88
2023-11-28T04:09:44.625Z,5.78
2023-11-28T04:12:11.542Z,5.07
2023-11-28T04:14:38.452Z,4.68
2023-11-28T04:17:05.529Z,4.57
2023-11-28T04:19:32.448Z,3.92
2023-11-28T04:21:59.452Z,4.95
2023-11-28T04:24:26.519Z,5.38
2023-11-28T04:26:53.577Z,4.80
2023-11-28T04:29:21.984Z,7.85
2023-11-28T04:31:49.140Z,5.50
2023-11-28T04:34:16.840Z,5.90
2023-11-28T04:36:43.670Z,4.70
2023-11-28T04:39:12.677Z,6.55
2023-11-28T04:41:40.535Z,5.20
2023-11-28T04:44:09.035Z,5.18
2023-11-28T04:46:36.765Z,5.28
2023-11-28T04:49:03.661Z,4.85
2023-11-28T04:51:31.104Z,4.90
2023-11-28T04:53:57.965Z,5.38
2023-11-28T04:56:24.856Z,5.40
2023-11-28T04:58:52.076Z,4.95
2023-11-28T05:01:19.430Z,5.38
2023-11-28T05:03:46.353Z,6.05
2023-11-28T05:06:13.431Z,5.93
2023-11-28T05:08:40.394Z,6.43
2023-11-28T05:11:07.530Z,6.25
2023-11-28T05:13:36.409Z,5.53
2023-11-28T05:16:04.509Z,7.68
2023-11-28T05:18:31.892Z,6.43
2023-11-28T05:20:58.795Z,5.75
2023-11-28T05:23:26.607Z,4.07
2023-11-28T05:25:53.722Z,3.97
2023-11-28T05:28:20.687Z,4.78
2023-11-28T05:30:47.611Z,4.43
2023-11-28T05:33:16.418Z,5.40
2023-11-28T05:35:43.417Z,6.97
2023-11-28T05:38:10.332Z,6.85
2023-11-28T05:40:37.342Z,7.03
2023-11-28T05:43:04.238Z,6.15
2023-11-28T05:45:31.212Z,6.03
2023-11-28T05:47:58.425Z,5.95
2023-11-28T05:50:26.308Z,5.57
2023-11-28T05:52:54.251Z,6.47
2023-11-28T05:55:23.010Z,7.25
2023-11-28T05:57:50.312Z,6.50
2023-11-28T06:00:19.210Z,7.53
2023-11-28T06:02:47.645Z,6.65
2023-11-28T06:05:14.933Z,4.78
2023-11-28T06:07:42.830Z,5.75
2023-11-28T06:10:15.213Z,4.97
2023-11-28T06:12:42.395Z,5.18
2023-11-28T06:15:10.007Z,5.70
2023-11-28T06:17:37.313Z,5.43
2023-11-28T06:20:07.003Z,5.30
2023-11-28T06:22:34.415Z,5.97
2023-11-28T06:25:01.350Z,6.00
2023-11-28T06:27:28.154Z,6.57
2023-11-28T06:29:55.637Z,5.65
2023-11-28T06:32:22.649Z,5.45
2023-11-28T06:34:49.841Z,6.07
2023-11-28T06:37:16.918Z,5.15
2023-11-28T06:39:45.855Z,5.45
2023-11-28T06:42:12.870Z,5.43
2023-11-28T06:44:39.727Z,6.07
2023-11-28T06:47:07.471Z,7.80
2023-11-28T06:49:34.681Z,8.80
2023-11-28T06:52:03.320Z,7.38
2023-11-28T06:54:30.685Z,5.78
2023-11-28T06:56:57.649Z,5.05
2023-11-28T06:59:24.509Z,6.10
2023-11-28T07:01:51.449Z,4.97
2023-11-28T07:04:18.522Z,7.05
2023-11-28T07:06:45.389Z,5.32
2023-11-28T07:09:12.201Z,6.07
2023-11-28T07:11:39.103Z,7.78
2023-11-28T07:14:07.025Z,5.45
2023-11-28T07:16:35.246Z,7.18
2023-11-28T07:19:02.221Z,6.45
2023-11-28T07:21:29.202Z,7.47
2023-11-28T07:23:56.005Z,8.52
2023-11-28T07:26:22.810Z,6.57
2023-11-28T07:28:49.878Z,6.53
2023-11-28T07:31:17.719Z,7.97
2023-11-28T07:33:44.681Z,6.85
2023-11-28T07:36:15.697Z,9.25
2023-11-28T07:41:15.760Z,8.60
2023-11-28T07:43:43.011Z,7.82
2023-11-28T07:46:11.411Z,10.98
2023-11-28T07:48:38.358Z,7.78
2023-11-28T07:51:05.835Z,9.20
2023-11-28T07:53:33.545Z,10.38
2023-11-28T07:56:00.456Z,7.90
2023-11-28T07:58:27.339Z,7.15
2023-11-28T08:00:54.170Z,6.47
2023-11-28T08:03:21.091Z,8.88
2023-11-28T08:05:48.677Z,6.28
2023-11-28T08:08:18.490Z,7.28
2023-11-28T08:10:45.450Z,7.22
2023-11-28T08:13:16.719Z,6.68
2023-11-28T08:15:43.964Z,8.77
2023-11-28T08:18:11.164Z,10.57
2023-11-28T08:20:38.086Z,11.48
2023-11-28T08:23:05.100Z,11.82
2023-11-28T08:25:31.992Z,9.57
2023-11-28T08:27:58.899Z,15.63
2023-11-28T08:30:25.894Z,10.25
2023-11-28T08:32:52.842Z,10.93
2023-11-28T08:35:19.810Z,11.02
2023-11-28T08:37:46.755Z,9.73
2023-11-28T08:40:13.904Z,12.23
2023-11-28T08:42:40.843Z,8.98
2023-11-28T08:45:10.215Z,10.18
2023-11-28T08:47:37.478Z,10.40
2023-11-28T08:50:07.912Z,11.82
2023-11-28T08:52:35.030Z,13.05
2023-11-28T08:55:02.098Z,13.45
2023-11-28T08:57:35.408Z,20.30
2023-11-28T09:00:06.973Z,21.77
2023-11-28T09:02:34.271Z,24.70
2023-11-28T09:05:02.982Z,24.05
2023-11-28T09:07:29.823Z,25.88
2023-11-28T09:09:56.768Z,27.48
2023-11-28T09:12:23.631Z,23.70
2023-11-28T09:14:56.209Z,15.70
2023-11-28T09:17:24.022Z,15.13
2023-11-28T09:19:51.186Z,14.43
2023-11-28T09:22:19.002Z,10.77
2023-11-28T09:24:45.981Z,22.63
2023-11-28T09:27:13.972Z,14.40
2023-11-28T09:29:42.549Z,15.77
2023-11-28T09:32:09.617Z,10.00
2023-11-28T09:34:36.521Z,9.77
2023-11-28T09:37:03.500Z,10.18
2023-11-28T09:39:30.381Z,6.57
2023-11-28T09:42:00.720Z,5.63
2023-11-28T09:44:30.118Z,6.28
2023-11-28T09:46:58.385Z,6.60
2023-11-28T09:49:26.502Z,6.05
2023-11-28T09:51:58.389Z,5.15
2023-11-28T09:54:26.934Z,6.25
2023-11-28T09:56:55.254Z,6.57
2023-11-28T09:59:23.863Z,5.25
2023-11-28T10:01:52.895Z,5.53
2023-11-28T10:04:23.294Z,4.40
2023-11-28T10:06:51.665Z,5.05
2023-11-28T10:09:19.205Z,5.22
2023-11-28T10:11:48.644Z,3.70
2023-11-28T10:14:15.917Z,4.65
2023-11-28T10:16:48.687Z,4.97
2023-11-28T10:19:19.005Z,5.70
2023-11-28T10:21:46.292Z,5.00
2023-11-28T10:24:13.945Z,4.13
2023-11-28T10:26:43.702Z,4.45
2023-11-28T10:29:10.666Z,5.57
2023-11-28T10:31:41.966Z,6.57
2023-11-28T10:34:15.750Z,8.80
2023-11-28T10:36:47.670Z,3.92
2023-11-28T10:39:20.601Z,5.10
2023-11-28T10:41:48.858Z,6.03
2023-11-28T10:44:15.817Z,5.65
2023-11-28T10:46:42.882Z,5.32
2023-11-28T10:49:10.094Z,4.80
2023-11-28T10:51:37.589Z,4.55
2023-11-28T10:54:08.653Z,8.18
2023-11-28T10:59:35.279Z,4.75
2023-11-28T11:02:04.805Z,5.18
2023-11-28T11:04:32.397Z,5.72
2023-11-28T11:07:00.052Z,5.00
2023-11-28T11:09:28.493Z,3.78
2023-11-28T11:11:57.854Z,4.10
2023-11-28T11:14:30.739Z,5.30
2023-11-28T11:17:01.903Z,4.07
2023-11-28T11:19:30.909Z,4.47
2023-11-28T11:22:06.476Z,5.22
2023-11-28T11:24:33.790Z,3.08
2023-11-28T11:27:02.576Z,3.63
2023-11-28T11:29:29.654Z,3.65
2023-11-28T11:32:01.763Z,3.58
2023-11-28T11:34:44.472Z,3.28
2023-11-28T11:37:12.686Z,3.75
2023-11-28T11:39:41.833Z,3.53
2023-11-28T11:42:17.861Z,3.95
2023-11-28T11:45:06.999Z,2.65
2023-11-28T11:47:38.121Z,3.38
2023-11-28T11:50:06.594Z,2.97
2023-11-28T11:52:34.657Z,2.58
2023-11-28T11:55:10.511Z,3.13
2023-11-28T11:57:40.799Z,3.30
2023-11-28T12:00:08.291Z,3.25
2023-11-28T12:02:45.278Z,2.97
2023-11-28T12:05:13.034Z,4.13
2023-11-28T12:07:43.345Z,3.83
2023-11-28T12:10:13.056Z,3.40
2023-11-28T12:12:41.585Z,5.63
2023-11-28T12:15:11.384Z,3.55
2023-11-28T12:17:40.862Z,3.03
2023-11-28T12:20:10.272Z,3.90
2023-11-28T12:22:37.318Z,3.53
2023-11-28T12:25:04.410Z,3.33
2023-11-28T12:27:31.335Z,3.83
2023-11-28T12:30:00.447Z,3.00
2023-11-28T12:32:28.213Z,4.20
2023-11-28T12:34:58.545Z,4.18
2023-11-28T12:37:25.489Z,5.07
2023-11-28T12:39:55.963Z,4.72
2023-11-28T12:42:27.110Z,3.22
2023-11-28T12:44:58.375Z,4.60
2023-11-28T12:47:27.495Z,5.53
2023-11-28T12:49:54.544Z,4.53
2023-11-28T12:52:32.327Z,5.32
2023-11-28T12:54:59.254Z,4.22
2023-11-28T12:57:26.448Z,4.18
2023-11-28T12:59:53.472Z,5.82
2023-11-28T13:02:20.982Z,6.72
2023-11-28T13:04:48.011Z,4.85
2023-11-28T13:07:26.311Z,5.22
2023-11-28T13:10:01.028Z,5.28
2023-11-28T13:12:28.567Z,6.43
2023-11-28T13:14:56.529Z,6.35
2023-11-28T13:17:23.940Z,5.80
2023-11-28T13:19:50.920Z,5.35
2023-11-28T13:22:19.631Z,4.82
2023-11-28T13:24:47.401Z,5.15
2023-11-28T13:27:17.926Z,4.93
2023-11-28T13:29:47.243Z,6.03
2023-11-28T13:32:14.139Z,5.75
2023-11-28T13:34:44.330Z,4.55
2023-11-28T13:37:11.187Z,5.15
2023-11-28T13:39:38.186Z,5.18
2023-11-28T13:42:05.212Z,5.43
2023-11-28T13:44:32.962Z,5.85
2023-11-28T13:47:00.651Z,5.60
2023-11-28T13:49:27.681Z,5.10
2023-11-28T13:51:54.565Z,6.32
2023-11-28T13:54:21.413Z,8.68
2023-11-28T13:56:48.354Z,5.07
2023-11-28T13:59:19.985Z,4.97
2023-11-28T14:01:47.990Z,4.47
2023-11-28T14:04:15.309Z,6.35
2023-11-28T14:06:42.559Z,6.25
2023-11-28T14:09:13.891Z,5.57
2023-11-28T14:11:40.759Z,7.80
2023-11-28T14:14:08.202Z,5.78
2023-11-28T14:16:35.638Z,6.25
2023-11-28T14:19:02.631Z,6.75
2023-11-28T14:21:30.801Z,5.95
2023-11-28T14:23:57.677Z,5.82
2023-11-28T14:26:24.602Z,6.03
2023-11-28T14:28:51.545Z,5.38
2023-11-28T14:31:20.595Z,6.13
2023-11-28T14:33:47.518Z,6.22
2023-11-28T14:36:14.487Z,4.60
2023-11-28T14:38:41.581Z,4.90
2023-11-28T14:41:09.620Z,5.97
2023-11-28T14:43:36.667Z,4.35
2023-11-28T14:46:03.566Z,4.72
2023-11-28T14:48:30.556Z,3.78
2023-11-28T14:50:57.501Z,3.80
2023-11-28T14:53:24.352Z,4.57
2023-11-28T14:55:54.274Z,3.63
2023-11-28T14:58:21.219Z,4.05
2023-11-28T15:00:48.537Z,3.97
2023-11-28T15:03:15.439Z,5.20
2023-11-28T15:05:42.466Z,4.45
2023-11-28T15:08:10.373Z,4.22
2023-11-28T15:10:37.688Z,4.43
2023-11-28T15:13:04.575Z,4.97
2023-11-28T15:15:32.377Z,8.05
2023-11-28T15:17:59.314Z,4.65
2023-11-28T15:20:26.260Z,4.65
2023-11-28T15:22:53.251Z,4.40
2023-11-28T15:25:20.187Z,6.65
2023-11-28T15:27:47.035Z,4.47
2023-11-28T15:30:14.228Z,6.43
2023-11-28T15:32:41.306Z,3.67
2023-11-28T15:35:12.740Z,4.50
2023-11-28T15:37:40.667Z,4.35
2023-11-28T15:40:10.531Z,3.70
2023-11-28T15:42:37.898Z,4.47
2023-11-28T15:45:05.662Z,5.15
2023-11-28T15:47:33.306Z,4.75
2023-11-28T15:50:01.607Z,3.83
2023-11-28T15:52:29.040Z,5.40
2023-11-28T15:54:55.902Z,6.32
2023-11-28T15:57:24.152Z,6.82
2023-11-28T15:59:51.056Z,9.07
2023-11-28T16:02:18.142Z,5.78
2023-11-28T16:04:45.049Z,5.45
2023-11-28T16:07:11.877Z,5.57
2023-11-28T16:09:38.767Z,6.53
2023-11-28T16:12:06.115Z,5.82
2023-11-28T16:14:32.941Z,5.90
2023-11-28T16:16:59.932Z,4.63
2023-11-28T16:19:26.939Z,6.13
2023-11-28T16:21:55.570Z,4.60
2023-11-28T16:24:22.435Z,3.95
2023-11-28T16:26:51.522Z,4.72
2023-11-28T16:29:18.459Z,6.65
2023-11-28T16:31:45.505Z,6.40
2023-11-28T16:34:12.963Z,4.97
2023-11-28T16:36:41.015Z,4.70
2023-11-28T16:39:08.823Z,5.70
2023-11-28T16:41:37.286Z,5.88
2023-11-28T16:44:05.380Z,4.63
2023-11-28T16:46:32.485Z,5.18
2023-11-28T16:48:59.538Z,11.82
2023-11-28T16:51:27.665Z,10.45
2023-11-28T16:53:55.002Z,7.53
2023-11-28T16:56:39.180Z,4.60
2023-11-28T16:59:19.250Z,10.15
2023-11-28T17:01:52.127Z,5.80
2023-11-28T17:04:36.998Z,4.65
2023-11-28T17:07:25.466Z,5.45
2023-11-28T17:10:05.721Z,4.75
2023-11-28T17:12:41.827Z,4.63
2023-11-28T17:15:36.167Z,4.82
2023-11-28T17:18:03.721Z,3.83
2023-11-28T17:20:58.389Z,5.55
2023-11-28T17:27:05.030Z,4.57
2023-11-28T17:30:07.437Z,7.72
2023-11-28T17:32:40.624Z,3.78
2023-11-28T17:46:08.743Z,4.53
2023-11-28T17:53:10.932Z,7.93
2023-11-28T17:59:43.323Z,6.70
2023-11-28T18:02:16.876Z,5.78
2023-11-28T18:12:13.056Z,6.10
2023-11-28T18:15:26.247Z,5.53
2023-11-28T18:18:47.119Z,7.22
2023-11-28T18:25:02.238Z,4.95
2023-11-28T18:28:01.637Z,6.88
2023-11-28T18:41:34.583Z,6.00
2023-11-28T18:53:50.434Z,6.13
2023-11-28T18:56:18.487Z,5.97
2023-11-28T18:58:48.211Z,5.65
2023-11-28T19:01:19.336Z,6.30
2023-11-28T19:06:14.489Z,8.55
2023-11-28T19:08:42.835Z,6.75
2023-11-28T19:11:12.669Z,8.75
2023-11-28T19:13:40.126Z,5.32
2023-11-28T19:16:08.308Z,6.45
2023-11-28T19:18:35.401Z,6.43
2023-11-28T19:21:03.531Z,9.02
2023-11-28T19:23:30.390Z,7.63
2023-11-28T19:25:57.325Z,8.23
2023-11-28T19:28:24.219Z,9.90
2023-11-28T19:30:51.060Z,8.55
2023-11-28T19:33:17.979Z,6.30
2023-11-28T19:35:44.893Z,5.38
2023-11-28T19:38:11.759Z,6.63
2023-11-28T19:40:38.725Z,5.57
2023-11-28T19:43:05.550Z,5.50
2023-11-28T19:45:32.330Z,5.00
2023-11-28T19:47:59.164Z,5.55
2023-11-28T19:50:27.769Z,5.30
2023-11-28T19:52:54.692Z,9.18
2023-11-28T19:55:21.511Z,7.88
2023-11-28T19:57:48.535Z,6.90
2023-11-28T20:00:15.598Z,8.25
2023-11-28T20:02:42.616Z,12.38
2023-11-28T20:05:09.662Z,9.57
2023-11-28T20:07:40.598Z,8.65
2023-11-28T20:10:11.872Z,9.35
2023-11-28T20:15:06.408Z,7.78
2023-11-28T20:17:33.404Z,8.10
2023-11-28T20:20:00.358Z,6.00
2023-11-28T20:22:27.316Z,6.50
2023-11-28T20:24:54.160Z,4.88
2023-11-28T20:27:21.030Z,3.88
2023-11-28T20:29:47.962Z,5.35
2023-11-28T20:32:14.832Z,4.88
2023-11-28T20:34:41.725Z,4.95
2023-11-28T20:37:18.545Z,4.63
2023-11-28T20:39:46.751Z,5.35
2023-11-28T20:42:13.670Z,6.22
2023-11-28T20:44:40.626Z,5.38
2023-11-28T20:47:09.493Z,4.60
2023-11-28T20:49:36.350Z,5.55
2023-11-28T20:52:03.268Z,10.82
2023-11-28T20:54:30.101Z,25.30
2023-11-28T20:56:56.998Z,48.70
2023-11-28T20:59:25.347Z,22.90
2023-11-28T21:01:52.317Z,49.70
2023-11-28T21:04:19.508Z,17.83
2023-11-28T21:06:48.238Z,23.27
2023-11-28T21:09:15.245Z,13.15
2023-11-28T21:11:42.110Z,25.65
2023-11-28T21:14:09.907Z,17.77
2023-11-28T21:16:36.883Z,24.02
2023-11-28T21:19:04.942Z,17.83
2023-11-28T21:21:32.978Z,8.32
2023-11-28T21:23:59.845Z,6.38
2023-11-28T21:26:26.789Z,7.43
2023-11-28T21:28:54.335Z,6.32
2023-11-28T21:31:21.401Z,6.03
2023-11-28T21:33:48.299Z,6.43
2023-11-28T21:36:16.597Z,9.73
2023-11-28T21:38:45.853Z,8.65
2023-11-28T21:41:18.349Z,7.53
2023-11-28T21:43:46.007Z,24.52
2023-11-28T21:46:13.287Z,11.60
2023-11-28T21:48:42.938Z,30.15
2023-11-28T21:51:09.866Z,8.50
2023-11-28T21:53:37.041Z,5.65
2023-11-28T21:56:04.781Z,4.05
2023-11-28T21:58:33.522Z,5.40
2023-11-28T22:01:00.370Z,4.15
2023-11-28T22:03:27.457Z,4.53
2023-11-28T22:05:54.693Z,3.65
2023-11-28T22:08:23.697Z,4.80
2023-11-28T22:10:50.757Z,5.63
2023-11-28T22:13:18.970Z,4.47
2023-11-28T22:15:46.431Z,4.70
2023-11-28T22:18:13.478Z,3.80
2023-11-28T22:20:40.571Z,4.05
2023-11-28T22:23:07.466Z,4.28
2023-11-28T22:25:34.320Z,4.80
2023-11-28T22:28:01.274Z,5.00
2023-11-28T22:30:28.123Z,5.00
2023-11-28T22:32:55.180Z,4.63
2023-11-28T22:35:22.028Z,3.83
2023-11-28T22:37:50.855Z,4.10
2023-11-28T22:40:19.229Z,4.25
2023-11-28T22:42:47.246Z,4.35
2023-11-28T22:45:15.297Z,4.03
2023-11-28T22:47:42.277Z,5.07
2023-11-28T22:50:09.499Z,4.35
2023-11-28T22:52:36.524Z,6.53
2023-11-28T22:55:06.534Z,6.35
2023-11-28T22:57:33.798Z,7.30
2023-11-28T23:00:01.562Z,5.07
2023-11-28T23:02:29.592Z,6.20
2023-11-28T23:04:56.472Z,5.88
2023-11-28T23:07:23.780Z,6.10
2023-11-28T23:09:50.807Z,5.13
2023-11-28T23:12:19.052Z,5.45
2023-11-28T23:14:46.484Z,6.70
2023-11-28T23:17:13.831Z,5.15
2023-11-28T23:19:40.696Z,5.55
2023-11-28T23:22:08.380Z,5.35
2023-11-28T23:24:35.305Z,4.53
2023-11-28T23:27:02.123Z,4.70
2023-11-28T23:29:29.114Z,4.82
2023-11-28T23:31:56.032Z,5.65
2023-11-28T23:34:22.989Z,7.50
2023-11-28T23:36:49.954Z,7.90
2023-11-28T23:39:20.556Z,6.65
2023-11-28T23:41:47.934Z,7.47
2023-11-28T23:44:15.304Z,11.27
2023-11-28T23:46:42.166Z,11.38
2023-11-28T23:49:09.813Z,9.80
2023-11-28T23:51:36.764Z,6.60
2023-11-28T23:54:03.692Z,5.07
2023-11-28T23:56:30.670Z,5.93
2023-11-28T23:58:57.713Z,6.07
